Terminal Aerodrome Forecast
Issued by NWS

Home | Current Version | Previous Version | Graphics & Text | Print | Product List | Glossary On
Versions: 1 2 3 4 5 6 7 8 9 10 11 12 13 14 15 16 17 18 19 20 21 22 23 24
562
FTUS43 KABR 080215 AAB
TAFATY
TAF AMD
KATY 080215Z 0802/0824 33024G32KT 5SM -SN BLSN OVC035
     FM080500 34026G37KT 3SM -SN BLSN OVC025
     FM081800 34025G32KT P6SM BKN250=

USA.gov is the U.S. government's official web portal to all federal, state and local government web resources and services.